createdAt,value
2023-02-16T00:01:00.573Z,63.60
2023-02-16T00:03:27.960Z,63.65
2023-02-16T00:05:54.884Z,63.96
2023-02-16T00:08:21.743Z,63.86
2023-02-16T00:11:08.638Z,64.05
2023-02-16T00:13:44.878Z,63.84
2023-02-16T00:16:14.710Z,63.53
2023-02-16T00:18:41.589Z,64.09
2023-02-16T00:21:08.370Z,62.92
2023-02-16T00:23:35.180Z,63.93
2023-02-16T00:26:02.104Z,63.12
2023-02-16T00:28:29.093Z,63.06
2023-02-16T00:30:55.992Z,63.65
2023-02-16T00:33:23.109Z,63.32
2023-02-16T00:35:49.973Z,63.22
2023-02-16T00:38:16.990Z,63.35
2023-02-16T00:40:44.071Z,63.28
2023-02-16T00:43:23.068Z,63.24
2023-02-16T00:45:50.016Z,63.38
2023-02-16T00:48:16.908Z,63.12
2023-02-16T00:50:43.972Z,63.32
2023-02-16T00:53:11.838Z,62.79
2023-02-16T00:55:39.853Z,63.08
2023-02-16T00:58:15.651Z,63.06
2023-02-16T01:00:45.091Z,63.48
2023-02-16T01:03:24.208Z,62.95
2023-02-16T01:06:11.105Z,63.55
2023-02-16T01:08:56.472Z,63.87
2023-02-16T01:11:24.297Z,62.83
2023-02-16T01:13:51.870Z,63.81
2023-02-16T01:16:20.694Z,63.65
2023-02-16T01:18:47.997Z,63.42
2023-02-16T01:21:14.855Z,63.62
2023-02-16T01:23:41.652Z,63.69
2023-02-16T01:26:13.041Z,63.25
2023-02-16T01:28:39.956Z,63.09
2023-02-16T01:31:07.136Z,63.89
2023-02-16T01:33:34.142Z,62.91
2023-02-16T01:36:00.948Z,63.28
2023-02-16T01:38:29.022Z,64.24
2023-02-16T01:41:25.151Z,64.24
2023-02-16T01:43:51.903Z,63.61
2023-02-16T01:46:21.904Z,63.23
2023-02-16T01:48:49.045Z,63.62
2023-02-16T01:51:24.724Z,64.17
2023-02-16T01:53:58.834Z,63.78
2023-02-16T01:56:28.378Z,64.50
2023-02-16T01:58:56.618Z,63.84
2023-02-16T02:01:37.675Z,63.41
2023-02-16T02:04:29.649Z,63.79
2023-02-16T02:06:56.496Z,63.73
2023-02-16T02:09:26.145Z,63.70
2023-02-16T02:12:00.701Z,62.92
2023-02-16T02:14:30.380Z,63.09
2023-02-16T02:16:58.615Z,63.24
2023-02-16T02:19:26.766Z,63.29
2023-02-16T02:22:34.332Z,64.15
2023-02-16T02:25:22.988Z,64.05
2023-02-16T02:28:05.211Z,63.49
2023-02-16T02:31:04.879Z,63.75
2023-02-16T02:33:42.349Z,64.11
2023-02-16T02:36:12.913Z,63.77
2023-02-16T02:38:46.933Z,63.74
2023-02-16T02:41:51.470Z,64.03
2023-02-16T02:44:20.443Z,63.95
2023-02-16T02:46:47.330Z,63.69
2023-02-16T02:49:14.649Z,64.60
2023-02-16T02:51:43.320Z,63.82
2023-02-16T02:54:36.413Z,64.83
2023-02-16T02:57:24.247Z,65.09
2023-02-16T03:00:17.644Z,64.07
2023-02-16T03:02:46.413Z,64.57
2023-02-16T03:05:13.748Z,64.09
2023-02-16T03:07:48.596Z,64.68
2023-02-16T03:10:41.949Z,64.56
2023-02-16T03:13:13.427Z,64.77
2023-02-16T03:15:41.156Z,64.85
2023-02-16T03:18:27.759Z,65.43
2023-02-16T03:21:14.073Z,65.52
2023-02-16T03:24:00.707Z,65.54
2023-02-16T03:26:46.376Z,65.25
2023-02-16T03:29:22.773Z,64.34
2023-02-16T03:31:50.360Z,65.04
2023-02-16T03:34:18.329Z,65.22
2023-02-16T03:36:47.327Z,64.44
2023-02-16T03:39:14.219Z,64.62
2023-02-16T03:41:43.468Z,64.69
2023-02-16T03:44:10.865Z,64.73
2023-02-16T03:46:37.764Z,64.52
2023-02-16T03:49:04.584Z,64.19
2023-02-16T03:51:31.470Z,63.97
2023-02-16T03:53:58.268Z,64.84
2023-02-16T03:56:25.118Z,63.63
2023-02-16T03:58:51.966Z,64.52
2023-02-16T04:01:19.177Z,63.97
2023-02-16T04:03:46.004Z,65.00
2023-02-16T04:06:13.046Z,64.71
2023-02-16T04:08:40.204Z,64.74
2023-02-16T04:11:36.429Z,64.67
2023-02-16T04:14:03.236Z,64.66
2023-02-16T04:16:30.109Z,64.00
2023-02-16T04:18:56.937Z,64.07
2023-02-16T04:21:23.767Z,64.19
2023-02-16T04:23:50.593Z,64.30
2023-02-16T04:26:17.418Z,64.63
2023-02-16T04:28:44.265Z,63.61
2023-02-16T04:31:11.222Z,63.66
2023-02-16T04:33:38.094Z,63.64
2023-02-16T04:36:05.099Z,64.34
2023-02-16T04:38:31.999Z,63.79
2023-02-16T04:40:58.964Z,63.74
2023-02-16T04:43:25.804Z,63.94
2023-02-16T04:45:52.665Z,64.07
2023-02-16T04:48:19.490Z,64.08
2023-02-16T04:50:46.340Z,64.33
2023-02-16T04:53:13.138Z,64.87
2023-02-16T04:55:39.935Z,64.87
2023-02-16T04:58:06.762Z,65.28
2023-02-16T05:00:36.234Z,64.61
2023-02-16T05:03:03.399Z,64.99
2023-02-16T05:05:31.731Z,64.98
2023-02-16T05:07:58.570Z,65.12
2023-02-16T05:10:25.428Z,64.26
2023-02-16T05:13:10.964Z,64.23
2023-02-16T05:15:37.924Z,65.23
2023-02-16T05:18:04.837Z,65.50
2023-02-16T05:20:49.902Z,65.53
2023-02-16T05:23:16.684Z,64.91
2023-02-16T05:26:43.533Z,64.74
2023-02-16T05:29:10.602Z,64.42
2023-02-16T05:31:37.798Z,64.59
2023-02-16T05:34:04.929Z,65.13
2023-02-16T05:36:31.944Z,64.67
2023-02-16T05:38:59.237Z,65.06
2023-02-16T05:41:26.281Z,65.28
2023-02-16T05:43:58.873Z,64.81
2023-02-16T05:46:27.804Z,65.01
2023-02-16T05:48:54.899Z,65.07
2023-02-16T05:51:22.123Z,65.28
2023-02-16T05:53:49.165Z,65.28
2023-02-16T05:56:17.170Z,64.70
2023-02-16T05:58:44.223Z,64.57
2023-02-16T06:01:11.853Z,65.04
2023-02-16T06:03:39.025Z,64.95
2023-02-16T06:06:06.882Z,64.89
2023-02-16T06:08:34.028Z,64.97
2023-02-16T06:11:01.039Z,64.45
2023-02-16T06:13:28.238Z,64.60
2023-02-16T06:15:57.710Z,64.76
2023-02-16T06:18:25.679Z,64.98
2023-02-16T06:20:52.788Z,64.60
2023-02-16T06:23:19.798Z,64.57
2023-02-16T06:25:50.796Z,64.90
2023-02-16T06:28:17.949Z,65.14
2023-02-16T06:30:45.062Z,64.40
2023-02-16T06:33:12.131Z,64.34
2023-02-16T06:35:39.141Z,64.40
2023-02-16T06:38:06.172Z,64.84
2023-02-16T06:40:33.313Z,64.14
2023-02-16T06:43:00.350Z,64.29
2023-02-16T06:45:27.323Z,64.59
2023-02-16T06:47:54.341Z,64.60
2023-02-16T06:50:21.516Z,64.71
2023-02-16T06:52:51.069Z,64.07
2023-02-16T06:55:18.222Z,65.14
2023-02-16T06:57:45.205Z,64.41
2023-02-16T07:00:12.833Z,64.56
2023-02-16T07:02:39.838Z,64.41
2023-02-16T07:05:06.998Z,64.54
2023-02-16T07:07:33.999Z,64.28
2023-02-16T07:10:02.880Z,64.25
2023-02-16T07:12:31.184Z,63.47
2023-02-16T07:14:58.229Z,63.33
2023-02-16T07:17:25.246Z,63.70
2023-02-16T07:19:52.367Z,63.66
2023-02-16T07:22:19.384Z,63.56
2023-02-16T07:24:46.401Z,63.51
2023-02-16T07:27:13.468Z,62.74
2023-02-16T07:29:40.604Z,62.38
2023-02-16T07:32:08.530Z,62.67
2023-02-16T07:34:35.616Z,62.19
2023-02-16T07:37:02.605Z,62.63
2023-02-16T07:39:30.894Z,62.78
2023-02-16T07:41:58.033Z,62.59
2023-02-16T07:44:26.596Z,62.31
2023-02-16T07:46:53.587Z,61.62
2023-02-16T07:49:20.683Z,61.35
2023-02-16T07:51:47.722Z,61.59
2023-02-16T07:54:14.800Z,61.95
2023-02-16T07:56:41.797Z,61.83
2023-02-16T07:59:08.853Z,61.32
2023-02-16T08:01:35.838Z,60.81
2023-02-16T08:04:02.884Z,61.50
2023-02-16T08:06:30.026Z,60.81
2023-02-16T08:08:57.544Z,60.21
2023-02-16T08:11:25.399Z,60.33
2023-02-16T08:13:52.890Z,60.16
2023-02-16T08:16:22.900Z,60.09
2023-02-16T08:18:50.939Z,60.04
2023-02-16T08:21:23.729Z,60.66
2023-02-16T08:23:59.716Z,59.65
2023-02-16T08:26:29.222Z,60.41
2023-02-16T08:28:58.031Z,60.40
2023-02-16T08:31:30.048Z,60.42
2023-02-16T08:34:00.597Z,60.00
2023-02-16T08:36:32.464Z,59.77
2023-02-16T08:39:01.128Z,60.06
2023-02-16T08:41:33.691Z,59.18
2023-02-16T08:44:01.374Z,59.16
2023-02-16T08:46:29.909Z,59.12
2023-02-16T08:48:59.802Z,59.34
2023-02-16T08:51:29.385Z,58.46
2023-02-16T08:53:58.720Z,58.45
2023-02-16T08:56:26.546Z,58.83
2023-02-16T08:58:53.525Z,58.36
2023-02-16T09:01:20.701Z,58.17
2023-02-16T09:03:48.648Z,58.25
2023-02-16T09:06:17.739Z,57.92
2023-02-16T09:08:46.669Z,58.47
2023-02-16T09:11:15.915Z,58.13
2023-02-16T09:13:43.706Z,57.85
2023-02-16T09:16:14.534Z,57.42
2023-02-16T09:18:42.815Z,57.11
2023-02-16T09:21:15.131Z,57.17
2023-02-16T09:23:50.177Z,57.77
2023-02-16T09:26:19.531Z,57.01
2023-02-16T09:28:47.427Z,57.10
2023-02-16T09:31:25.622Z,58.05
2023-02-16T09:33:56.271Z,57.76
2023-02-16T09:36:23.632Z,56.80
2023-02-16T09:38:51.548Z,57.10
2023-02-16T09:41:37.048Z,56.69
2023-02-16T09:44:25.970Z,56.81
2023-02-16T09:46:56.824Z,56.50
2023-02-16T09:49:33.485Z,56.00
2023-02-16T09:52:24.089Z,56.46
2023-02-16T09:54:57.846Z,55.76
2023-02-16T09:57:49.199Z,56.66
2023-02-16T10:00:34.523Z,55.89
2023-02-16T10:03:09.565Z,56.73
2023-02-16T10:05:56.825Z,56.70
2023-02-16T10:08:31.476Z,56.46
2023-02-16T10:11:07.453Z,55.69
2023-02-16T10:13:53.579Z,55.51
2023-02-16T10:16:28.543Z,54.99
2023-02-16T10:18:56.751Z,55.34
2023-02-16T10:21:28.262Z,55.36
2023-02-16T10:24:00.769Z,54.28
2023-02-16T10:26:39.796Z,52.72
2023-02-16T10:29:12.383Z,53.87
2023-02-16T10:31:41.980Z,54.12
2023-02-16T10:34:28.099Z,53.43
2023-02-16T10:37:40.573Z,52.14
2023-02-16T10:40:30.319Z,52.90
2023-02-16T10:43:07.355Z,52.05
2023-02-16T10:45:51.916Z,52.45
2023-02-16T10:48:23.850Z,52.77
2023-02-16T10:51:03.459Z,53.13
2023-02-16T10:53:44.246Z,52.91
2023-02-16T10:56:33.185Z,52.60
2023-02-16T10:59:05.443Z,53.49
2023-02-16T11:01:38.429Z,53.58
2023-02-16T11:04:06.239Z,53.59
2023-02-16T11:06:36.548Z,53.16
2023-02-16T11:09:04.634Z,53.22
2023-02-16T11:11:38.849Z,52.30
2023-02-16T11:14:22.120Z,52.94
2023-02-16T11:17:02.215Z,53.29
2023-02-16T11:19:32.482Z,53.10
2023-02-16T11:21:59.942Z,52.99
2023-02-16T11:24:38.326Z,52.09
2023-02-16T11:27:14.345Z,53.13
2023-02-16T11:29:41.654Z,52.36
2023-02-16T11:32:14.901Z,51.72
2023-02-16T11:34:50.360Z,51.69
2023-02-16T11:37:24.552Z,51.46
2023-02-16T11:39:56.419Z,52.09
2023-02-16T11:42:33.382Z,51.18
2023-02-16T11:45:02.080Z,51.19
2023-02-16T11:47:37.726Z,52.00
2023-02-16T11:50:17.212Z,51.02
2023-02-16T11:52:45.260Z,51.88
2023-02-16T11:55:21.844Z,51.76
2023-02-16T11:57:49.272Z,52.50
2023-02-16T12:00:22.147Z,51.97
2023-02-16T12:03:17.016Z,52.18
2023-02-16T12:06:02.458Z,52.09
2023-02-16T12:08:38.579Z,52.35
2023-02-16T12:11:11.600Z,52.92
2023-02-16T12:13:50.397Z,52.22
2023-02-16T12:16:31.458Z,51.19
2023-02-16T12:19:17.001Z,51.55
2023-02-16T12:22:09.972Z,51.28
2023-02-16T12:24:55.700Z,50.88
2023-02-16T12:27:39.801Z,51.01
2023-02-16T12:30:12.604Z,51.35
2023-02-16T12:33:18.586Z,49.82
2023-02-16T12:35:54.622Z,51.03
2023-02-16T12:38:30.151Z,51.73
2023-02-16T12:41:15.658Z,51.01
2023-02-16T12:43:47.516Z,50.93
2023-02-16T12:46:23.782Z,51.26
2023-02-16T12:48:57.485Z,51.37
2023-02-16T12:51:38.747Z,51.08
2023-02-16T12:54:57.906Z,50.75
2023-02-16T12:57:30.883Z,51.06
2023-02-16T13:00:04.525Z,50.97
2023-02-16T13:02:43.610Z,51.15
2023-02-16T13:05:18.328Z,51.65
2023-02-16T13:07:50.369Z,51.21
2023-02-16T13:10:30.953Z,51.06
2023-02-16T13:13:12.775Z,50.92
2023-02-16T13:15:46.315Z,51.27
2023-02-16T13:18:42.218Z,50.54
2023-02-16T13:21:11.174Z,51.18
2023-02-16T13:23:52.088Z,51.02
2023-02-16T13:26:19.121Z,50.77
2023-02-16T13:29:23.187Z,49.68
2023-02-16T13:32:05.874Z,51.29
2023-02-16T13:35:10.566Z,50.91
2023-02-16T13:37:57.162Z,50.35
2023-02-16T13:40:35.530Z,50.90
2023-02-16T13:43:12.530Z,50.48
2023-02-16T13:45:42.061Z,50.14
2023-02-16T13:48:22.294Z,51.38
2023-02-16T13:50:58.655Z,51.75
2023-02-16T13:53:30.156Z,51.27
2023-02-16T13:56:22.387Z,51.90
2023-02-16T13:58:53.332Z,51.47
2023-02-16T14:01:32.503Z,51.62
2023-02-16T14:04:02.935Z,51.81
2023-02-16T14:06:37.211Z,52.20
2023-02-16T14:09:16.196Z,53.95
2023-02-16T14:11:55.146Z,53.91
2023-02-16T14:14:43.102Z,54.25
2023-02-16T14:17:16.341Z,53.63
2023-02-16T14:19:58.399Z,54.06
2023-02-16T14:22:59.937Z,54.13
2023-02-16T14:25:27.689Z,54.13
2023-02-16T14:27:59.358Z,53.79
2023-02-16T14:30:51.958Z,54.34
2023-02-16T14:33:23.760Z,54.84
2023-02-16T14:35:59.850Z,54.34
2023-02-16T14:38:42.603Z,54.75
2023-02-16T14:41:23.878Z,54.62
2023-02-16T14:44:11.938Z,54.58
2023-02-16T14:46:57.284Z,54.39
2023-02-16T14:49:50.486Z,53.78
2023-02-16T14:52:46.065Z,53.27
2023-02-16T14:55:40.317Z,53.80
2023-02-16T14:58:30.170Z,53.53
2023-02-16T15:01:11.415Z,53.95
2023-02-16T15:03:45.516Z,53.80
2023-02-16T15:06:38.382Z,54.08
2023-02-16T15:09:24.828Z,54.10
2023-02-16T15:12:16.318Z,54.05
2023-02-16T15:14:48.508Z,54.30
2023-02-16T15:17:21.781Z,54.47
2023-02-16T15:19:48.873Z,54.72
2023-02-16T15:22:21.620Z,54.76
2023-02-16T15:25:04.586Z,54.75
2023-02-16T15:27:35.307Z,54.69
2023-02-16T15:30:23.154Z,55.06
2023-02-16T15:32:56.426Z,55.33
2023-02-16T15:35:29.807Z,55.33
2023-02-16T15:38:08.799Z,55.54
2023-02-16T15:40:36.890Z,55.36
2023-02-16T15:43:33.985Z,55.68
2023-02-16T15:46:03.916Z,55.73
2023-02-16T15:48:37.113Z,56.49
2023-02-16T15:51:26.825Z,56.75
2023-02-16T15:54:02.877Z,56.13
2023-02-16T15:56:47.433Z,56.23
2023-02-16T15:59:20.277Z,57.08
2023-02-16T16:01:48.079Z,56.75
2023-02-16T16:04:23.352Z,56.95
2023-02-16T16:06:51.845Z,56.20
2023-02-16T16:09:37.349Z,57.55
2023-02-16T16:12:08.441Z,56.76
2023-02-16T16:14:39.923Z,57.11
2023-02-16T16:17:12.897Z,57.09
2023-02-16T16:19:40.039Z,57.54
2023-02-16T16:22:33.152Z,57.82
2023-02-16T16:25:01.303Z,58.48
2023-02-16T16:27:38.318Z,58.11
2023-02-16T16:30:20.763Z,58.43
2023-02-16T16:32:48.046Z,57.86
2023-02-16T16:35:23.354Z,57.95
2023-02-16T16:37:52.843Z,57.66
2023-02-16T16:40:22.596Z,57.82
2023-02-16T16:43:06.899Z,57.65
2023-02-16T16:45:48.642Z,57.96
2023-02-16T16:48:25.454Z,58.12
2023-02-16T16:51:11.825Z,57.91
2023-02-16T16:53:44.263Z,58.30
2023-02-16T16:56:13.623Z,57.72
2023-02-16T16:58:40.930Z,57.44
2023-02-16T17:01:10.146Z,57.84
2023-02-16T17:03:38.669Z,58.73
2023-02-16T17:06:07.011Z,59.53
2023-02-16T17:08:34.385Z,59.26
2023-02-16T17:11:02.918Z,58.64
2023-02-16T17:13:30.980Z,58.40
2023-02-16T17:16:02.871Z,58.18
2023-02-16T17:18:29.996Z,58.03
2023-02-16T17:20:57.066Z,57.67
2023-02-16T17:23:24.143Z,57.93
2023-02-16T17:25:51.298Z,58.43
2023-02-16T17:28:19.818Z,59.45
2023-02-16T17:30:47.182Z,59.37
2023-02-16T17:33:14.278Z,59.87
2023-02-16T17:35:43.567Z,59.97
2023-02-16T17:38:14.157Z,59.73
2023-02-16T17:40:41.937Z,59.34
2023-02-16T17:43:13.432Z,58.94
2023-02-16T17:45:40.989Z,58.63
2023-02-16T17:48:08.082Z,58.68
2023-02-16T17:50:35.380Z,58.38
2023-02-16T17:53:02.472Z,58.89
2023-02-16T17:55:29.615Z,58.64
2023-02-16T17:57:58.245Z,59.15
2023-02-16T18:00:25.393Z,59.22
2023-02-16T18:02:52.509Z,58.80
2023-02-16T18:05:19.621Z,58.95
2023-02-16T18:07:46.691Z,59.06
2023-02-16T18:10:31.088Z,58.75
2023-02-16T18:12:58.146Z,58.41
2023-02-16T18:15:25.168Z,58.71
2023-02-16T18:17:54.449Z,58.53
2023-02-16T18:20:22.527Z,59.32
2023-02-16T18:22:49.640Z,59.19
2023-02-16T18:25:16.785Z,59.19
2023-02-16T18:27:44.160Z,58.69
2023-02-16T18:30:13.126Z,58.63
2023-02-16T18:32:41.995Z,59.13
2023-02-16T18:35:10.870Z,58.91
2023-02-16T18:37:38.233Z,59.19
2023-02-16T18:40:08.667Z,58.65
2023-02-16T18:42:36.882Z,59.08
2023-02-16T18:45:05.488Z,59.20
2023-02-16T18:47:32.625Z,59.24
2023-02-16T18:49:59.906Z,58.59
2023-02-16T18:52:26.918Z,59.01
2023-02-16T18:54:53.941Z,58.37
2023-02-16T18:57:22.793Z,58.33
2023-02-16T18:59:50.011Z,58.36
2023-02-16T19:02:17.178Z,58.81
2023-02-16T19:04:44.195Z,58.15
2023-02-16T19:07:11.314Z,58.59
2023-02-16T19:09:38.322Z,58.71
2023-02-16T19:12:05.618Z,58.47
2023-02-16T19:14:32.675Z,58.22
2023-02-16T19:16:59.664Z,58.63
2023-02-16T19:19:26.673Z,59.00
2023-02-16T19:21:53.769Z,58.76
2023-02-16T19:24:20.812Z,59.06
2023-02-16T19:26:47.874Z,58.29
2023-02-16T19:29:14.930Z,58.44
2023-02-16T19:31:42.025Z,58.25
2023-02-16T19:34:09.242Z,58.63
2023-02-16T19:36:36.391Z,58.49
2023-02-16T19:39:04.288Z,58.34
2023-02-16T19:41:34.321Z,58.24
2023-02-16T19:44:02.138Z,57.91
2023-02-16T19:46:32.992Z,57.89
2023-02-16T19:49:00.376Z,57.61
2023-02-16T19:51:27.665Z,57.87
2023-02-16T19:53:54.694Z,57.63
2023-02-16T19:56:25.462Z,58.07
2023-02-16T19:58:53.537Z,58.12
2023-02-16T20:01:24.120Z,58.38
2023-02-16T20:03:52.218Z,58.23
2023-02-16T20:06:29.256Z,58.16
2023-02-16T20:08:56.738Z,58.43
2023-02-16T20:11:25.905Z,58.01
2023-02-16T20:13:53.398Z,58.31
2023-02-16T20:16:21.601Z,58.03
2023-02-16T20:18:49.191Z,58.40
2023-02-16T20:21:20.263Z,58.61
2023-02-16T20:23:48.540Z,58.70
2023-02-16T20:26:21.949Z,58.63
2023-02-16T20:28:50.099Z,58.52
2023-02-16T20:31:24.714Z,58.46
2023-02-16T20:33:56.407Z,58.51
2023-02-16T20:36:23.659Z,58.47
2023-02-16T20:38:50.900Z,58.55
2023-02-16T20:41:20.960Z,58.53
2023-02-16T20:43:48.213Z,58.38
2023-02-16T20:46:16.460Z,58.74
2023-02-16T20:48:46.082Z,58.50
2023-02-16T20:51:13.684Z,58.91
2023-02-16T20:53:41.359Z,58.83
2023-02-16T20:56:18.683Z,58.66
2023-02-16T20:58:47.525Z,58.67
2023-02-16T21:01:23.816Z,58.81
2023-02-16T21:03:52.091Z,58.40
2023-02-16T21:06:20.059Z,58.64
2023-02-16T21:08:47.571Z,58.63
2023-02-16T21:11:15.741Z,58.66
2023-02-16T21:13:43.219Z,58.81
2023-02-16T21:16:11.170Z,58.50
2023-02-16T21:18:40.483Z,58.46
2023-02-16T21:21:09.436Z,58.77
2023-02-16T21:23:36.674Z,58.24
2023-02-16T21:26:05.998Z,58.80
2023-02-16T21:28:33.707Z,58.54
2023-02-16T21:31:10.116Z,58.54
2023-02-16T21:33:38.429Z,58.33
2023-02-16T21:36:06.566Z,58.65
2023-02-16T21:38:35.677Z,58.69
2023-02-16T21:41:27.742Z,58.58
2023-02-16T21:44:02.658Z,58.78
2023-02-16T21:46:39.185Z,58.16
2023-02-16T21:49:18.288Z,57.87
2023-02-16T21:51:47.093Z,57.82
2023-02-16T21:54:39.265Z,58.05
2023-02-16T21:57:06.308Z,57.79
2023-02-16T21:59:34.034Z,57.74
2023-02-16T22:02:01.019Z,58.22
2023-02-16T22:04:28.052Z,58.33
2023-02-16T22:06:56.192Z,57.97
2023-02-16T22:09:23.851Z,57.89
2023-02-16T22:11:51.776Z,58.14
2023-02-16T22:14:19.887Z,57.86
2023-02-16T22:16:48.083Z,58.09
2023-02-16T22:19:17.386Z,58.21
2023-02-16T22:21:46.429Z,58.24
2023-02-16T22:24:15.296Z,57.64
2023-02-16T22:26:42.716Z,57.80
2023-02-16T22:29:10.763Z,57.79
2023-02-16T22:31:38.507Z,57.94
2023-02-16T22:34:12.583Z,57.83
2023-02-16T22:36:40.345Z,57.92
2023-02-16T22:39:07.858Z,57.56
2023-02-16T22:41:35.832Z,57.40
2023-02-16T22:44:03.017Z,57.29
2023-02-16T22:46:30.644Z,57.32
2023-02-16T22:48:59.669Z,57.13
2023-02-16T22:51:29.438Z,57.29
2023-02-16T22:54:01.162Z,57.32
2023-02-16T22:56:29.835Z,57.30
2023-02-16T22:58:58.234Z,57.13
2023-02-16T23:01:27.437Z,56.85
2023-02-16T23:03:59.121Z,57.23
2023-02-16T23:06:28.872Z,57.23
2023-02-16T23:08:58.948Z,57.17
2023-02-16T23:11:27.190Z,57.18
2023-02-16T23:13:54.366Z,57.12
2023-02-16T23:16:24.228Z,57.08
2023-02-16T23:18:51.510Z,56.84
2023-02-16T23:21:22.290Z,57.30
2023-02-16T23:23:51.758Z,57.29
2023-02-16T23:26:19.891Z,57.77
2023-02-16T23:28:51.174Z,57.54
2023-02-16T23:31:18.710Z,57.10
2023-02-16T23:33:46.309Z,57.49
2023-02-16T23:36:13.315Z,57.46
2023-02-16T23:38:40.344Z,57.77
2023-02-16T23:41:11.835Z,57.27
2023-02-16T23:43:38.870Z,57.68
2023-02-16T23:46:06.661Z,57.34
2023-02-16T23:48:34.501Z,57.20
2023-02-16T23:51:01.663Z,57.91
2023-02-16T23:53:29.131Z,58.00
2023-02-16T23:56:01.412Z,57.46
2023-02-16T23:58:30.053Z,57.63
